MYGF METAR and TAF weather

Enter ICAO airport designator
Station Type Date Time Source
MYGF METAR 2020/09/24 00:00 UTC NOAA

MYGF 240000Z 08008KT 9999 SCT018 BKN220 26/22 A2998


Station Type Date Time Source
MYGF Decoded METAR 2020/09/24 00:00 UTC NOAA

Freeport, Grand Bahama, Bahamas, The (MYGF) 26-33N 078-42W 11M
Sep 23, 2020 - 08:00 PM EDT / 2020.09.24 0000 UTC
Wind: from the E (080 degrees) at 9 MPH (8 KT):0
Visibility: greater than 7 mile(s):0
Sky conditions: mostly cloudy
Temperature: 78 F (26 C)
Dew Point: 71 F (22 C)
Relative Humidity: 78%
Pressure (altimeter): 29.98 in. Hg (1015 hPa)
ob: MYGF 240000Z 08008KT 9999 SCT018 BKN220 26/22 A2998
cycle: 0

Station Type Date Time Source
MYGF TAF 2020/09/24 12:18 UTC NOAA

TAF MYGF 240925Z 2412/2512 12014KT 9999 SCT025 SCT060 BKN250
TEMPO PROB30 2416/2420 9000 SHRA

Example: see airport list